PWSweather.com
Personal Weather Stations
Station Observations
WD4JKH
Forsyth, GA 31029

Forsyth, GA 31029

Lat: 33.033225, Lon: -83.927995

Elevation: 709

Station Type: Davis Vantage VUE

High Low Average
Temperature 72.4°F22.4°C 66.5°F19.2°C 69.0°F20.6°C
Dew Point 68.3°F20.2°C 64.4°F18.0°C 66.6°F19.2°C
Winds 8.6 mph 13.8 kmh Calm Calm 3.0 mph ENE4.8 kmh ENE
Wind Gusts 16.0 mph25.7 kmh 1.0 mph1.6 kmh 9.0 mph14.5 kmh
Humidity 96% 87% 92%
Pressure 29.97 in1014.9 mb 29.88 in1011.9 mb -
Precipitation 0.09 in2.3 mm - -
Hour Temp Dew Point Humidity Winds Wind Gusts Pressure Precip Precip Rate Daily Precip Total
12:00 AM 74.3°F23.5°C 68.9°F20.5°C 83% 1.1 mph ESE1.8 kmh ESE 3.0 mph4.8 kmh 29.96 in1014.6 mb 0.00 in0.0 mm 0.00 in0.0 mm 0.00 in0.0 mm
12:05 AM 74.2°F23.4°C 68.8°F20.4°C 83% 1.0 mph SE1.6 kmh SE 3.0 mph4.8 kmh 29.96 in1014.6 mb 0.00 in0.0 mm 0.00 in0.0 mm 0.00 in0.0 mm
12:10 AM 74.0°F23.3°C 68.6°F20.3°C 83% 1.3 mph E2.1 kmh E 3.0 mph4.8 kmh 29.97 in1014.9 mb 0.00 in0.0 mm 0.00 in0.0 mm 0.00 in0.0 mm
12:15 AM 74.0°F23.3°C 68.6°F20.3°C 83% 1.9 mph E3.1 kmh E 3.0 mph4.8 kmh 29.96 in1014.6 mb 0.00 in0.0 mm 0.00 in0.0 mm 0.00 in0.0 mm
12:20 AM 73.9°F23.3°C 68.8°F20.4°C 84% 1.3 mph NE2.1 kmh NE 3.0 mph4.8 kmh 29.96 in1014.6 mb 0.00 in0.0 mm 0.00 in0.0 mm 0.00 in0.0 mm
12:25 AM 73.8°F23.2°C 68.7°F20.4°C 84% 1.4 mph NE2.3 kmh NE 3.0 mph4.8 kmh 29.96 in1014.6 mb 0.00 in0.0 mm 0.00 in0.0 mm 0.00 in0.0 mm
12:30 AM 73.8°F23.2°C 68.7°F20.4°C 84% 1.4 mph NE2.3 kmh NE 3.0 mph4.8 kmh 29.96 in1014.6 mb 0.00 in0.0 mm 0.00 in0.0 mm 0.00 in0.0 mm
12:35 AM 73.5°F23.1°C 68.7°F20.4°C 85% 2.1 mph NE3.4 kmh NE 4.0 mph6.4 kmh 29.96 in1014.6 mb 0.00 in0.0 mm 0.00 in0.0 mm 0.00 in0.0 mm
12:40 AM 73.4°F23.0°C 68.6°F20.3°C 85% Calm Calm 4.0 mph6.4 kmh 29.96 in1014.6 mb 0.00 in0.0 mm 0.00 in0.0 mm 0.00 in0.0 mm
12:45 AM 73.2°F22.9°C 68.8°F20.4°C 86% Calm Calm 4.0 mph6.4 kmh 29.96 in1014.6 mb 0.00 in0.0 mm 0.00 in0.0 mm 0.00 in0.0 mm
12:50 AM 72.9°F22.7°C 68.5°F20.3°C 86% 1.0 mph NNE1.6 kmh NNE 4.0 mph6.4 kmh 29.97 in1014.9 mb 0.00 in0.0 mm 0.00 in0.0 mm 0.00 in0.0 mm
12:55 AM 72.7°F22.6°C 68.6°F20.3°C 87% Calm Calm 2.0 mph3.2 kmh 29.97 in1014.9 mb 0.00 in0.0 mm 0.00 in0.0 mm 0.00 in0.0 mm
01:00 AM 72.4°F22.4°C 68.3°F20.2°C 87% Calm Calm 1.0 mph1.6 kmh 29.97 in1014.9 mb 0.00 in0.0 mm 0.00 in0.0 mm 0.00 in0.0 mm
01:05 AM 72.2°F22.3°C 68.1°F20.1°C 87% 1.0 mph N1.6 kmh N 1.0 mph1.6 kmh 29.97 in1014.9 mb 0.00 in0.0 mm 0.00 in0.0 mm 0.00 in0.0 mm
01:10 AM 71.9°F22.2°C 67.8°F19.9°C 87% 1.5 mph NNE2.4 kmh NNE 2.0 mph3.2 kmh 29.96 in1014.6 mb 0.00 in0.0 mm 0.00 in0.0 mm 0.00 in0.0 mm
01:15 AM 71.8°F22.1°C 67.7°F19.8°C 87% Calm Calm 2.0 mph3.2 kmh 29.96 in1014.6 mb 0.00 in0.0 mm 0.00 in0.0 mm 0.00 in0.0 mm
01:20 AM 71.7°F22.1°C 68.0°F20.0°C 88% 1.1 mph NE1.8 kmh NE 2.0 mph3.2 kmh 29.96 in1014.6 mb 0.00 in0.0 mm 0.00 in0.0 mm 0.00 in0.0 mm
01:25 AM 71.6°F22.0°C 67.5°F19.7°C 87% 2.7 mph NE4.3 kmh NE 5.0 mph8.0 kmh 29.96 in1014.6 mb 0.00 in0.0 mm 0.00 in0.0 mm 0.00 in0.0 mm
01:30 AM 71.6°F22.0°C 67.5°F19.7°C 87% 1.7 mph NE2.7 kmh NE 5.0 mph8.0 kmh 29.95 in1014.2 mb 0.00 in0.0 mm 0.00 in0.0 mm 0.00 in0.0 mm
01:35 AM 71.6°F22.0°C 67.5°F19.7°C 87% 1.8 mph NE2.9 kmh NE 5.0 mph8.0 kmh 29.96 in1014.6 mb 0.00 in0.0 mm 0.00 in0.0 mm 0.00 in0.0 mm
01:40 AM 71.5°F21.9°C 67.4°F19.7°C 87% 1.6 mph ENE2.6 kmh ENE 5.0 mph8.0 kmh 29.96 in1014.6 mb 0.00 in0.0 mm 0.00 in0.0 mm 0.00 in0.0 mm
01:45 AM 71.5°F21.9°C 67.4°F19.7°C 87% 1.7 mph ENE2.7 kmh ENE 3.0 mph4.8 kmh 29.95 in1014.2 mb 0.00 in0.0 mm 0.00 in0.0 mm 0.00 in0.0 mm
01:50 AM 71.4°F21.9°C 67.3°F19.6°C 87% 1.6 mph E2.6 kmh E 4.0 mph6.4 kmh 29.96 in1014.6 mb 0.00 in0.0 mm 0.00 in0.0 mm 0.00 in0.0 mm
01:55 AM 71.4°F21.9°C 67.7°F19.8°C 88% Calm Calm 4.0 mph6.4 kmh 29.95 in1014.2 mb 0.00 in0.0 mm 0.00 in0.0 mm 0.00 in0.0 mm
02:00 AM 71.3°F21.8°C 67.6°F19.8°C 88% 1.5 mph E2.4 kmh E 4.0 mph6.4 kmh 29.95 in1014.2 mb 0.00 in0.0 mm 0.00 in0.0 mm 0.00 in0.0 mm
02:05 AM 71.3°F21.8°C 67.6°F19.8°C 88% 1.0 mph E1.6 kmh E 4.0 mph6.4 kmh 29.96 in1014.6 mb 0.00 in0.0 mm 0.00 in0.0 mm 0.00 in0.0 mm
02:10 AM 71.2°F21.8°C 67.5°F19.7°C 88% 1.3 mph E2.1 kmh E 3.0 mph4.8 kmh 29.95 in1014.2 mb 0.00 in0.0 mm 0.00 in0.0 mm 0.00 in0.0 mm
02:15 AM 71.1°F21.7°C 67.7°F19.8°C 89% 1.6 mph E2.6 kmh E 4.0 mph6.4 kmh 29.95 in1014.2 mb 0.00 in0.0 mm 0.00 in0.0 mm 0.00 in0.0 mm
02:20 AM 71.0°F21.7°C 67.6°F19.8°C 89% 1.6 mph E2.6 kmh E 4.0 mph6.4 kmh 29.95 in1014.2 mb 0.00 in0.0 mm 0.00 in0.0 mm 0.00 in0.0 mm
02:25 AM 71.0°F21.7°C 67.6°F19.8°C 89% 2.5 mph NE4.0 kmh NE 5.0 mph8.0 kmh 29.95 in1014.2 mb 0.00 in0.0 mm 0.00 in0.0 mm 0.00 in0.0 mm
02:30 AM 70.9°F21.6°C 67.5°F19.7°C 89% 1.3 mph ENE2.1 kmh ENE 5.0 mph8.0 kmh 29.95 in1014.2 mb 0.00 in0.0 mm 0.00 in0.0 mm 0.00 in0.0 mm
02:35 AM 70.7°F21.5°C 67.6°F19.8°C 90% 1.6 mph NE2.6 kmh NE 5.0 mph8.0 kmh 29.95 in1014.2 mb 0.00 in0.0 mm 0.00 in0.0 mm 0.00 in0.0 mm
02:40 AM 70.6°F21.4°C 67.5°F19.7°C 90% 3.1 mph NE5.0 kmh NE 5.0 mph8.0 kmh 29.95 in1014.2 mb 0.00 in0.0 mm 0.00 in0.0 mm 0.00 in0.0 mm
02:45 AM 70.5°F21.4°C 67.1°F19.5°C 89% 3.0 mph NE4.8 kmh NE 5.0 mph8.0 kmh 29.95 in1014.2 mb 0.00 in0.0 mm 0.00 in0.0 mm 0.00 in0.0 mm
02:50 AM 70.5°F21.4°C 67.4°F19.7°C 90% 1.0 mph NNE1.6 kmh NNE 5.0 mph8.0 kmh 29.95 in1014.2 mb 0.00 in0.0 mm 0.00 in0.0 mm 0.00 in0.0 mm
02:55 AM 70.3°F21.3°C 67.2°F19.6°C 90% 2.0 mph N3.2 kmh N 5.0 mph8.0 kmh 29.95 in1014.2 mb 0.00 in0.0 mm 0.00 in0.0 mm 0.00 in0.0 mm
03:00 AM 70.0°F21.1°C 66.9°F19.4°C 90% 1.9 mph NE3.1 kmh NE 5.0 mph8.0 kmh 29.95 in1014.2 mb 0.00 in0.0 mm 0.00 in0.0 mm 0.00 in0.0 mm
03:05 AM 69.8°F21.0°C 67.0°F19.4°C 91% 3.1 mph NE5.0 kmh NE 6.0 mph9.7 kmh 29.95 in1014.2 mb 0.00 in0.0 mm 0.00 in0.0 mm 0.00 in0.0 mm
03:10 AM 69.8°F21.0°C 67.0°F19.4°C 91% 4.6 mph NE7.4 kmh NE 9.0 mph14.5 kmh 29.94 in1013.9 mb 0.00 in0.0 mm 0.00 in0.0 mm 0.00 in0.0 mm
03:15 AM 69.8°F21.0°C 67.0°F19.4°C 91% 4.4 mph NE7.1 kmh NE 9.0 mph14.5 kmh 29.94 in1013.9 mb 0.00 in0.0 mm 0.00 in0.0 mm 0.00 in0.0 mm
03:20 AM 69.9°F21.1°C 67.1°F19.5°C 91% 3.3 mph NE5.3 kmh NE 9.0 mph14.5 kmh 29.94 in1013.9 mb 0.00 in0.0 mm 0.00 in0.0 mm 0.00 in0.0 mm
03:25 AM 70.0°F21.1°C 67.2°F19.6°C 91% 1.7 mph ENE2.7 kmh ENE 9.0 mph14.5 kmh 29.94 in1013.9 mb 0.00 in0.0 mm 0.00 in0.0 mm 0.00 in0.0 mm
03:30 AM 70.1°F21.2°C 67.3°F19.6°C 91% 3.8 mph NE6.1 kmh NE 8.0 mph12.9 kmh 29.94 in1013.9 mb 0.00 in0.0 mm 0.00 in0.0 mm 0.00 in0.0 mm
03:35 AM 70.2°F21.2°C 67.4°F19.7°C 91% 4.1 mph NE6.6 kmh NE 9.0 mph14.5 kmh 29.94 in1013.9 mb 0.00 in0.0 mm 0.00 in0.0 mm 0.00 in0.0 mm
03:40 AM 70.3°F21.3°C 67.5°F19.7°C 91% 1.4 mph ENE2.3 kmh ENE 9.0 mph14.5 kmh 29.93 in1013.5 mb 0.00 in0.0 mm 0.00 in0.0 mm 0.00 in0.0 mm
03:45 AM 70.4°F21.3°C 67.6°F19.8°C 91% 2.8 mph NE4.5 kmh NE 9.0 mph14.5 kmh 29.94 in1013.9 mb 0.00 in0.0 mm 0.00 in0.0 mm 0.00 in0.0 mm
03:50 AM 70.5°F21.4°C 67.7°F19.8°C 91% 4.1 mph NE6.6 kmh NE 9.0 mph14.5 kmh 29.94 in1013.9 mb 0.00 in0.0 mm 0.00 in0.0 mm 0.00 in0.0 mm
03:55 AM 70.6°F21.4°C 67.8°F19.9°C 91% 2.0 mph ENE3.2 kmh ENE 9.0 mph14.5 kmh 29.94 in1013.9 mb 0.00 in0.0 mm 0.00 in0.0 mm 0.00 in0.0 mm
04:00 AM 70.6°F21.4°C 67.8°F19.9°C 91% 4.3 mph NE6.9 kmh NE 9.0 mph14.5 kmh 29.94 in1013.9 mb 0.00 in0.0 mm 0.00 in0.0 mm 0.00 in0.0 mm
04:05 AM 70.6°F21.4°C 67.8°F19.9°C 91% 3.6 mph NE5.8 kmh NE 9.0 mph14.5 kmh 29.94 in1013.9 mb 0.00 in0.0 mm 0.00 in0.0 mm 0.00 in0.0 mm
04:10 AM 70.5°F21.4°C 67.7°F19.8°C 91% 2.8 mph NE4.5 kmh NE 9.0 mph14.5 kmh 29.93 in1013.5 mb 0.00 in0.0 mm 0.00 in0.0 mm 0.00 in0.0 mm
04:15 AM 70.4°F21.3°C 67.9°F19.9°C 92% 2.7 mph NNE4.3 kmh NNE 8.0 mph12.9 kmh 29.93 in1013.5 mb 0.00 in0.0 mm 0.00 in0.0 mm 0.00 in0.0 mm
04:20 AM 70.4°F21.3°C 68.0°F20.0°C 92% 2.2 mph NE3.5 kmh NE 8.0 mph12.9 kmh 29.94 in1013.9 mb 0.00 in0.0 mm 0.00 in0.0 mm 0.00 in0.0 mm
04:25 AM 70.3°F21.3°C 67.9°F19.9°C 92% 2.9 mph NE4.7 kmh NE 8.0 mph12.9 kmh 29.94 in1013.9 mb 0.00 in0.0 mm 0.00 in0.0 mm 0.00 in0.0 mm
04:30 AM 70.3°F21.3°C 67.9°F19.9°C 92% 3.2 mph NE5.1 kmh NE 8.0 mph12.9 kmh 29.94 in1013.9 mb 0.00 in0.0 mm 0.00 in0.0 mm 0.00 in0.0 mm
04:35 AM 70.3°F21.3°C 67.8°F19.9°C 92% 3.1 mph NE5.0 kmh NE 7.0 mph11.3 kmh 29.94 in1013.9 mb 0.00 in0.0 mm 0.00 in0.0 mm 0.00 in0.0 mm
04:40 AM 70.2°F21.2°C 67.7°F19.8°C 92% 1.4 mph NNE2.3 kmh NNE 6.0 mph9.7 kmh 29.94 in1013.9 mb 0.00 in0.0 mm 0.00 in0.0 mm 0.00 in0.0 mm
04:45 AM 70.2°F21.2°C 68.1°F20.1°C 93% 1.9 mph N3.1 kmh N 6.0 mph9.7 kmh 29.94 in1013.9 mb 0.00 in0.0 mm 0.00 in0.0 mm 0.00 in0.0 mm
04:50 AM 70.1°F21.2°C 68.0°F20.0°C 93% 1.1 mph NE1.8 kmh NE 5.0 mph8.0 kmh 29.94 in1013.9 mb 0.00 in0.0 mm 0.00 in0.0 mm 0.00 in0.0 mm
04:55 AM 70.1°F21.2°C 68.0°F20.0°C 93% 2.3 mph NNE3.7 kmh NNE 4.0 mph6.4 kmh 29.94 in1013.9 mb 0.00 in0.0 mm 0.00 in0.0 mm 0.00 in0.0 mm
04:59 AM 70.0°F21.1°C 67.9°F19.9°C 93% 1.8 mph NNE2.9 kmh NNE 4.0 mph6.4 kmh 29.94 in1013.9 mb 0.00 in0.0 mm 0.00 in0.0 mm 0.00 in0.0 mm
05:04 AM 70.0°F21.1°C 67.9°F19.9°C 93% 1.1 mph NE1.8 kmh NE 4.0 mph6.4 kmh 29.95 in1014.2 mb 0.00 in0.0 mm 0.00 in0.0 mm 0.00 in0.0 mm
05:09 AM 70.1°F21.2°C 68.0°F20.0°C 93% 1.8 mph NE2.9 kmh NE 4.0 mph6.4 kmh 29.95 in1014.2 mb 0.00 in0.0 mm 0.00 in0.0 mm 0.00 in0.0 mm
05:14 AM 70.1°F21.2°C 68.3°F20.2°C 94% 1.4 mph NE2.3 kmh NE 4.0 mph6.4 kmh 29.94 in1013.9 mb 0.00 in0.0 mm 0.00 in0.0 mm 0.00 in0.0 mm
05:19 AM 69.9°F21.1°C 68.1°F20.1°C 94% 3.3 mph NE5.3 kmh NE 7.0 mph11.3 kmh 29.94 in1013.9 mb 0.00 in0.0 mm 0.00 in0.0 mm 0.00 in0.0 mm
05:24 AM 69.7°F20.9°C 67.9°F19.9°C 94% 3.2 mph NE5.1 kmh NE 8.0 mph12.9 kmh 29.94 in1013.9 mb 0.00 in0.0 mm 0.00 in0.0 mm 0.00 in0.0 mm
05:29 AM 69.5°F20.8°C 67.7°F19.8°C 94% 2.5 mph NE4.0 kmh NE 8.0 mph12.9 kmh 29.94 in1013.9 mb 0.00 in0.0 mm 0.00 in0.0 mm 0.00 in0.0 mm
05:34 AM 69.2°F20.7°C 67.4°F19.7°C 94% 4.8 mph NE7.7 kmh NE 9.0 mph14.5 kmh 29.94 in1013.9 mb 0.00 in0.0 mm 0.00 in0.0 mm 0.00 in0.0 mm
05:39 AM 69.1°F20.6°C 67.6°F19.8°C 95% 2.7 mph NE4.3 kmh NE 9.0 mph14.5 kmh 29.94 in1013.9 mb 0.00 in0.0 mm 0.00 in0.0 mm 0.00 in0.0 mm
05:44 AM 68.9°F20.5°C 67.4°F19.7°C 95% 4.0 mph NE6.4 kmh NE 9.0 mph14.5 kmh 29.94 in1013.9 mb 0.00 in0.0 mm 0.00 in0.0 mm 0.00 in0.0 mm
05:49 AM 68.7°F20.4°C 67.2°F19.6°C 95% 3.8 mph NE6.1 kmh NE 9.0 mph14.5 kmh 29.94 in1013.9 mb 0.00 in0.0 mm 0.00 in0.0 mm 0.00 in0.0 mm
05:54 AM 68.6°F20.3°C 67.1°F19.5°C 95% 2.0 mph NE3.2 kmh NE 7.0 mph11.3 kmh 29.94 in1013.9 mb 0.01 in0.3 mm 0.12 in3.0 mm 0.01 in0.3 mm
05:59 AM 68.5°F20.3°C 67.0°F19.4°C 95% 2.8 mph NE4.5 kmh NE 7.0 mph11.3 kmh 29.94 in1013.9 mb 0.03 in0.8 mm 0.24 in6.1 mm 0.03 in0.8 mm
06:04 AM 68.4°F20.2°C 67.2°F19.6°C 96% 4.1 mph NE6.6 kmh NE 7.0 mph11.3 kmh 29.94 in1013.9 mb 0.08 in2.0 mm 0.05 in1.3 mm 0.08 in2.0 mm
06:09 AM 68.4°F20.2°C 67.2°F19.6°C 96% 2.8 mph NE4.5 kmh NE 7.0 mph11.3 kmh 29.94 in1013.9 mb 0.08 in2.0 mm 0.00 in0.0 mm 0.08 in2.0 mm
06:14 AM 68.3°F20.2°C 67.1°F19.5°C 96% 2.9 mph NE4.7 kmh NE 7.0 mph11.3 kmh 29.94 in1013.9 mb 0.08 in2.0 mm 0.00 in0.0 mm 0.08 in2.0 mm
06:19 AM 68.3°F20.2°C 67.1°F19.5°C 96% 3.1 mph NE5.0 kmh NE 7.0 mph11.3 kmh 29.94 in1013.9 mb 0.08 in2.0 mm 0.00 in0.0 mm 0.08 in2.0 mm
06:24 AM 68.3°F20.2°C 67.1°F19.5°C 96% 2.6 mph NE4.2 kmh NE 6.0 mph9.7 kmh 29.94 in1013.9 mb 0.08 in2.0 mm 0.00 in0.0 mm 0.08 in2.0 mm
06:29 AM 68.3°F20.2°C 67.1°F19.5°C 96% 2.4 mph NE3.9 kmh NE 6.0 mph9.7 kmh 29.94 in1013.9 mb 0.08 in2.0 mm 0.00 in0.0 mm 0.08 in2.0 mm
06:34 AM 68.2°F20.1°C 67.0°F19.4°C 96% 3.0 mph NE4.8 kmh NE 7.0 mph11.3 kmh 29.94 in1013.9 mb 0.08 in2.0 mm 0.00 in0.0 mm 0.08 in2.0 mm
06:39 AM 68.0°F20.0°C 66.8°F19.3°C 96% 3.7 mph NE6.0 kmh NE 7.0 mph11.3 kmh 29.94 in1013.9 mb 0.08 in2.0 mm 0.00 in0.0 mm 0.08 in2.0 mm
06:44 AM 67.9°F19.9°C 66.7°F19.3°C 96% 2.8 mph NE4.5 kmh NE 7.0 mph11.3 kmh 29.94 in1013.9 mb 0.08 in2.0 mm 0.00 in0.0 mm 0.08 in2.0 mm
06:49 AM 67.9°F19.9°C 66.7°F19.3°C 96% 3.6 mph ENE5.8 kmh ENE 7.0 mph11.3 kmh 29.94 in1013.9 mb 0.08 in2.0 mm 0.00 in0.0 mm 0.08 in2.0 mm
06:54 AM 67.9°F19.9°C 66.7°F19.3°C 96% 2.5 mph ENE4.0 kmh ENE 7.0 mph11.3 kmh 29.94 in1013.9 mb 0.07 in1.8 mm 0.00 in0.0 mm 0.08 in2.0 mm
06:59 AM 67.8°F19.9°C 66.6°F19.2°C 96% 3.6 mph NE5.8 kmh NE 6.0 mph9.7 kmh 29.94 in1013.9 mb 0.06 in1.5 mm 0.00 in0.0 mm 0.09 in2.3 mm
07:04 AM 67.7°F19.8°C 66.5°F19.2°C 96% 5.1 mph NE8.2 kmh NE 7.0 mph11.3 kmh 29.94 in1013.9 mb 0.01 in0.3 mm 0.00 in0.0 mm 0.09 in2.3 mm
07:09 AM 67.7°F19.8°C 66.5°F19.2°C 96% 2.4 mph NE3.9 kmh NE 7.0 mph11.3 kmh 29.94 in1013.9 mb 0.01 in0.3 mm 0.00 in0.0 mm 0.09 in2.3 mm
07:14 AM 67.6°F19.8°C 66.4°F19.1°C 96% 4.4 mph NE7.1 kmh NE 8.0 mph12.9 kmh 29.94 in1013.9 mb 0.01 in0.3 mm 0.00 in0.0 mm 0.09 in2.3 mm
07:19 AM 67.6°F19.8°C 66.4°F19.1°C 96% 2.5 mph NE4.0 kmh NE 8.0 mph12.9 kmh 29.94 in1013.9 mb 0.01 in0.3 mm 0.00 in0.0 mm 0.09 in2.3 mm
07:24 AM 67.5°F19.7°C 66.3°F19.1°C 96% 3.8 mph NE6.1 kmh NE 8.0 mph12.9 kmh 29.94 in1013.9 mb 0.01 in0.3 mm 0.00 in0.0 mm 0.09 in2.3 mm
07:29 AM 67.4°F19.7°C 66.2°F19.0°C 96% 2.9 mph NE4.7 kmh NE 8.0 mph12.9 kmh 29.94 in1013.9 mb 0.01 in0.3 mm 0.00 in0.0 mm 0.09 in2.3 mm
07:34 AM 67.4°F19.7°C 66.2°F19.0°C 96% 3.6 mph NE5.8 kmh NE 8.0 mph12.9 kmh 29.94 in1013.9 mb 0.01 in0.3 mm 0.00 in0.0 mm 0.09 in2.3 mm
07:39 AM 67.3°F19.6°C 66.1°F18.9°C 96% 4.5 mph NE7.2 kmh NE 8.0 mph12.9 kmh 29.95 in1014.2 mb 0.01 in0.3 mm 0.00 in0.0 mm 0.09 in2.3 mm
07:44 AM 67.2°F19.6°C 66.0°F18.9°C 96% 2.7 mph NE4.3 kmh NE 8.0 mph12.9 kmh 29.95 in1014.2 mb 0.01 in0.3 mm 0.00 in0.0 mm 0.09 in2.3 mm
07:49 AM 67.2°F19.6°C 66.0°F18.9°C 96% 3.9 mph NE6.3 kmh NE 8.0 mph12.9 kmh 29.95 in1014.2 mb 0.01 in0.3 mm 0.00 in0.0 mm 0.09 in2.3 mm
07:54 AM 67.2°F19.6°C 66.0°F18.9°C 96% 4.7 mph NE7.6 kmh NE 8.0 mph12.9 kmh 29.95 in1014.2 mb 0.01 in0.3 mm 0.00 in0.0 mm 0.09 in2.3 mm
07:59 AM 67.1°F19.5°C 65.9°F18.8°C 96% 3.7 mph NE6.0 kmh NE 8.0 mph12.9 kmh 29.95 in1014.2 mb 0.00 in0.0 mm 0.00 in0.0 mm 0.09 in2.3 mm
08:04 AM 67.1°F19.5°C 65.9°F18.8°C 96% 3.5 mph NE5.6 kmh NE 8.0 mph12.9 kmh 29.96 in1014.6 mb 0.00 in0.0 mm 0.00 in0.0 mm 0.09 in2.3 mm
08:09 AM 67.1°F19.5°C 65.9°F18.8°C 96% 5.0 mph NE8.0 kmh NE 8.0 mph12.9 kmh 29.96 in1014.6 mb 0.00 in0.0 mm 0.00 in0.0 mm 0.09 in2.3 mm
08:14 AM 67.1°F19.5°C 65.9°F18.8°C 96% 3.7 mph NE6.0 kmh NE 8.0 mph12.9 kmh 29.96 in1014.6 mb 0.00 in0.0 mm 0.00 in0.0 mm 0.09 in2.3 mm
08:19 AM 67.1°F19.5°C 65.9°F18.8°C 96% 2.6 mph NE4.2 kmh NE 8.0 mph12.9 kmh 29.96 in1014.6 mb 0.00 in0.0 mm 0.00 in0.0 mm 0.09 in2.3 mm
08:24 AM 67.2°F19.6°C 66.0°F18.9°C 96% 3.2 mph NE5.1 kmh NE 8.0 mph12.9 kmh 29.95 in1014.2 mb 0.00 in0.0 mm 0.00 in0.0 mm 0.09 in2.3 mm
08:29 AM 67.2°F19.6°C 66.0°F18.9°C 96% 3.6 mph NE5.8 kmh NE 9.0 mph14.5 kmh 29.96 in1014.6 mb 0.00 in0.0 mm 0.00 in0.0 mm 0.09 in2.3 mm
08:34 AM 67.2°F19.6°C 66.0°F18.9°C 96% 3.8 mph NE6.1 kmh NE 9.0 mph14.5 kmh 29.96 in1014.6 mb 0.00 in0.0 mm 0.00 in0.0 mm 0.09 in2.3 mm
08:39 AM 67.2°F19.6°C 65.7°F18.7°C 95% 2.7 mph NE4.3 kmh NE 9.0 mph14.5 kmh 29.96 in1014.6 mb 0.00 in0.0 mm 0.00 in0.0 mm 0.09 in2.3 mm
08:44 AM 67.2°F19.6°C 65.7°F18.7°C 95% 2.8 mph NE4.5 kmh NE 9.0 mph14.5 kmh 29.96 in1014.6 mb 0.00 in0.0 mm 0.00 in0.0 mm 0.09 in2.3 mm
08:49 AM 67.3°F19.6°C 65.8°F18.8°C 95% 2.9 mph NE4.7 kmh NE 9.0 mph14.5 kmh 29.96 in1014.6 mb 0.00 in0.0 mm 0.00 in0.0 mm 0.09 in2.3 mm
08:54 AM 67.3°F19.6°C 65.8°F18.8°C 95% 3.5 mph NE5.6 kmh NE 8.0 mph12.9 kmh 29.96 in1014.6 mb 0.00 in0.0 mm 0.00 in0.0 mm 0.09 in2.3 mm
08:59 AM 67.4°F19.7°C 65.9°F18.8°C 95% 3.4 mph ENE5.5 kmh ENE 7.0 mph11.3 kmh 29.96 in1014.6 mb 0.00 in0.0 mm 0.00 in0.0 mm 0.09 in2.3 mm
09:04 AM 67.5°F19.7°C 66.0°F18.9°C 95% 3.8 mph NE6.1 kmh NE 9.0 mph14.5 kmh 29.96 in1014.6 mb 0.00 in0.0 mm 0.00 in0.0 mm 0.09 in2.3 mm
09:09 AM 67.6°F19.8°C 66.4°F19.1°C 96% 3.0 mph NE4.8 kmh NE 9.0 mph14.5 kmh 29.97 in1014.9 mb 0.00 in0.0 mm 0.00 in0.0 mm 0.09 in2.3 mm
09:14 AM 67.6°F19.8°C 66.1°F18.9°C 95% 4.9 mph NE7.9 kmh NE 9.0 mph14.5 kmh 29.97 in1014.9 mb 0.00 in0.0 mm 0.00 in0.0 mm 0.09 in2.3 mm
09:19 AM 67.7°F19.8°C 66.2°F19.0°C 95% 4.2 mph NE6.8 kmh NE 10.0 mph16.1 kmh 29.97 in1014.9 mb 0.00 in0.0 mm 0.00 in0.0 mm 0.09 in2.3 mm
09:24 AM 67.8°F19.9°C 66.3°F19.1°C 95% 5.5 mph NE8.9 kmh NE 13.0 mph20.9 kmh 29.97 in1014.9 mb 0.00 in0.0 mm 0.00 in0.0 mm 0.09 in2.3 mm
09:29 AM 67.9°F19.9°C 66.4°F19.1°C 95% 5.7 mph NE9.2 kmh NE 13.0 mph20.9 kmh 29.97 in1014.9 mb 0.00 in0.0 mm 0.00 in0.0 mm 0.09 in2.3 mm
09:34 AM 68.0°F20.0°C 66.5°F19.2°C 95% 5.9 mph NE9.5 kmh NE 13.0 mph20.9 kmh 29.97 in1014.9 mb 0.00 in0.0 mm 0.00 in0.0 mm 0.09 in2.3 mm
09:39 AM 68.0°F20.0°C 66.8°F19.3°C 96% 5.2 mph NE8.4 kmh NE 13.0 mph20.9 kmh 29.97 in1014.9 mb 0.00 in0.0 mm 0.00 in0.0 mm 0.09 in2.3 mm
09:44 AM 68.1°F20.1°C 66.9°F19.4°C 96% 6.5 mph NE10.5 kmh NE 12.0 mph19.3 kmh 29.96 in1014.6 mb 0.00 in0.0 mm 0.00 in0.0 mm 0.09 in2.3 mm
09:49 AM 68.2°F20.1°C 67.0°F19.4°C 96% 7.6 mph NE12.2 kmh NE 11.0 mph17.7 kmh 29.96 in1014.6 mb 0.00 in0.0 mm 0.00 in0.0 mm 0.09 in2.3 mm
09:54 AM 68.2°F20.1°C 67.0°F19.4°C 96% 6.0 mph NE9.7 kmh NE 12.0 mph19.3 kmh 29.96 in1014.6 mb 0.00 in0.0 mm 0.00 in0.0 mm 0.09 in2.3 mm
09:59 AM 68.4°F20.2°C 67.2°F19.6°C 96% 4.8 mph NE7.7 kmh NE 13.0 mph20.9 kmh 29.96 in1014.6 mb 0.00 in0.0 mm 0.00 in0.0 mm 0.09 in2.3 mm
10:04 AM 68.5°F20.3°C 67.3°F19.6°C 96% 6.5 mph NE10.5 kmh NE 13.0 mph20.9 kmh 29.96 in1014.6 mb 0.00 in0.0 mm 0.00 in0.0 mm 0.09 in2.3 mm
10:09 AM 68.6°F20.3°C 67.4°F19.7°C 96% 4.1 mph NE6.6 kmh NE 13.0 mph20.9 kmh 29.96 in1014.6 mb 0.00 in0.0 mm 0.00 in0.0 mm 0.09 in2.3 mm
10:14 AM 68.6°F20.3°C 67.4°F19.7°C 96% 4.7 mph NE7.6 kmh NE 13.0 mph20.9 kmh 29.96 in1014.6 mb 0.00 in0.0 mm 0.00 in0.0 mm 0.09 in2.3 mm
10:19 AM 68.7°F20.4°C 67.5°F19.7°C 96% 3.1 mph NE5.0 kmh NE 13.0 mph20.9 kmh 29.96 in1014.6 mb 0.00 in0.0 mm 0.00 in0.0 mm 0.09 in2.3 mm
10:24 AM 68.7°F20.4°C 67.5°F19.7°C 96% 4.5 mph NE7.2 kmh NE 13.0 mph20.9 kmh 29.96 in1014.6 mb 0.00 in0.0 mm 0.00 in0.0 mm 0.09 in2.3 mm
10:29 AM 68.7°F20.4°C 67.5°F19.7°C 96% 5.4 mph ENE8.7 kmh ENE 13.0 mph20.9 kmh 29.96 in1014.6 mb 0.00 in0.0 mm 0.00 in0.0 mm 0.09 in2.3 mm
10:34 AM 68.8°F20.4°C 67.6°F19.8°C 96% 4.9 mph NE7.9 kmh NE 10.0 mph16.1 kmh 29.96 in1014.6 mb 0.00 in0.0 mm 0.00 in0.0 mm 0.09 in2.3 mm
10:39 AM 68.8°F20.4°C 67.6°F19.8°C 96% 6.2 mph NE10.0 kmh NE 12.0 mph19.3 kmh 29.96 in1014.6 mb 0.00 in0.0 mm 0.00 in0.0 mm 0.09 in2.3 mm
10:44 AM 68.8°F20.4°C 67.6°F19.8°C 96% 5.1 mph NE8.2 kmh NE 12.0 mph19.3 kmh 29.96 in1014.6 mb 0.00 in0.0 mm 0.00 in0.0 mm 0.09 in2.3 mm
10:49 AM 68.9°F20.5°C 67.7°F19.8°C 96% 3.7 mph NE6.0 kmh NE 12.0 mph19.3 kmh 29.96 in1014.6 mb 0.00 in0.0 mm 0.00 in0.0 mm 0.09 in2.3 mm
10:54 AM 68.9°F20.5°C 67.7°F19.8°C 96% 4.4 mph NE7.1 kmh NE 12.0 mph19.3 kmh 29.96 in1014.6 mb 0.00 in0.0 mm 0.00 in0.0 mm 0.09 in2.3 mm
10:58 AM 69.0°F20.6°C 67.8°F19.9°C 96% 4.3 mph NE6.9 kmh NE 12.0 mph19.3 kmh 29.96 in1014.6 mb 0.00 in0.0 mm 0.00 in0.0 mm 0.09 in2.3 mm
11:03 AM 69.2°F20.7°C 68.0°F20.0°C 96% 4.5 mph NE7.2 kmh NE 10.0 mph16.1 kmh 29.96 in1014.6 mb 0.00 in0.0 mm 0.00 in0.0 mm 0.09 in2.3 mm
11:08 AM 69.2°F20.7°C 67.7°F19.8°C 95% 4.4 mph ENE7.1 kmh ENE 10.0 mph16.1 kmh 29.96 in1014.6 mb 0.00 in0.0 mm 0.00 in0.0 mm 0.09 in2.3 mm
11:13 AM 69.4°F20.8°C 67.9°F19.9°C 95% 2.5 mph ENE4.0 kmh ENE 10.0 mph16.1 kmh 29.96 in1014.6 mb 0.00 in0.0 mm 0.00 in0.0 mm 0.09 in2.3 mm
11:18 AM 69.5°F20.8°C 68.0°F20.0°C 95% 5.7 mph ENE9.2 kmh ENE 12.0 mph19.3 kmh 29.96 in1014.6 mb 0.00 in0.0 mm 0.00 in0.0 mm 0.09 in2.3 mm
11:23 AM 69.7°F20.9°C 68.2°F20.1°C 95% 2.2 mph ENE3.5 kmh ENE 12.0 mph19.3 kmh 29.96 in1014.6 mb 0.00 in0.0 mm 0.00 in0.0 mm 0.09 in2.3 mm
11:28 AM 69.8°F21.0°C 68.0°F20.0°C 94% 3.8 mph NE6.1 kmh NE 12.0 mph19.3 kmh 29.96 in1014.6 mb 0.00 in0.0 mm 0.00 in0.0 mm 0.09 in2.3 mm
11:33 AM 69.9°F21.1°C 68.1°F20.1°C 94% 5.1 mph NE8.2 kmh NE 12.0 mph19.3 kmh 29.96 in1014.6 mb 0.00 in0.0 mm 0.00 in0.0 mm 0.09 in2.3 mm
11:38 AM 70.0°F21.1°C 68.2°F20.1°C 94% 3.9 mph ENE6.3 kmh ENE 11.0 mph17.7 kmh 29.96 in1014.6 mb 0.00 in0.0 mm 0.00 in0.0 mm 0.09 in2.3 mm
11:43 AM 70.0°F21.1°C 67.9°F19.9°C 93% 6.4 mph NE10.3 kmh NE 14.0 mph22.5 kmh 29.96 in1014.6 mb 0.00 in0.0 mm 0.00 in0.0 mm 0.09 in2.3 mm
11:48 AM 70.0°F21.1°C 67.9°F19.9°C 93% 4.3 mph NE6.9 kmh NE 14.0 mph22.5 kmh 29.95 in1014.2 mb 0.00 in0.0 mm 0.00 in0.0 mm 0.09 in2.3 mm
11:53 AM 70.0°F21.1°C 67.9°F19.9°C 93% 5.9 mph NE9.5 kmh NE 14.0 mph22.5 kmh 29.95 in1014.2 mb 0.00 in0.0 mm 0.00 in0.0 mm 0.09 in2.3 mm
11:58 AM 69.8°F21.0°C 67.7°F19.8°C 93% 6.3 mph NE10.1 kmh NE 14.0 mph22.5 kmh 29.95 in1014.2 mb 0.00 in0.0 mm 0.00 in0.0 mm 0.09 in2.3 mm
12:03 PM 69.8°F21.0°C 68.0°F20.0°C 94% 4.1 mph ENE6.6 kmh ENE 13.0 mph20.9 kmh 29.95 in1014.2 mb 0.00 in0.0 mm 0.00 in0.0 mm 0.09 in2.3 mm
12:08 PM 69.9°F21.1°C 68.1°F20.1°C 94% 3.5 mph NE5.6 kmh NE 12.0 mph19.3 kmh 29.95 in1014.2 mb 0.00 in0.0 mm 0.00 in0.0 mm 0.09 in2.3 mm
12:13 PM 69.9°F21.1°C 67.8°F19.9°C 93% 4.4 mph ENE7.1 kmh ENE 12.0 mph19.3 kmh 29.95 in1014.2 mb 0.00 in0.0 mm 0.00 in0.0 mm 0.09 in2.3 mm
12:18 PM 69.8°F21.0°C 67.3°F19.6°C 92% 6.8 mph NE10.9 kmh NE 12.0 mph19.3 kmh 29.95 in1014.2 mb 0.00 in0.0 mm 0.00 in0.0 mm 0.09 in2.3 mm
12:23 PM 69.8°F21.0°C 67.3°F19.6°C 92% 4.9 mph ENE7.9 kmh ENE 12.0 mph19.3 kmh 29.96 in1014.6 mb 0.00 in0.0 mm 0.00 in0.0 mm 0.09 in2.3 mm
12:28 PM 69.9°F21.1°C 67.4°F19.7°C 92% 3.5 mph NE5.6 kmh NE 11.0 mph17.7 kmh 29.96 in1014.6 mb 0.00 in0.0 mm 0.00 in0.0 mm 0.09 in2.3 mm
12:33 PM 69.8°F21.0°C 67.0°F19.4°C 91% 5.6 mph ENE9.0 kmh ENE 12.0 mph19.3 kmh 29.96 in1014.6 mb 0.00 in0.0 mm 0.00 in0.0 mm 0.09 in2.3 mm
12:38 PM 69.9°F21.1°C 67.1°F19.5°C 91% 5.3 mph E8.5 kmh E 14.0 mph22.5 kmh 29.96 in1014.6 mb 0.00 in0.0 mm 0.00 in0.0 mm 0.09 in2.3 mm
12:43 PM 70.0°F21.1°C 67.2°F19.6°C 91% 5.1 mph ENE8.2 kmh ENE 14.0 mph22.5 kmh 29.96 in1014.6 mb 0.00 in0.0 mm 0.00 in0.0 mm 0.09 in2.3 mm
12:48 PM 70.2°F21.2°C 67.4°F19.7°C 91% 3.9 mph NE6.3 kmh NE 14.0 mph22.5 kmh 29.96 in1014.6 mb 0.00 in0.0 mm 0.00 in0.0 mm 0.09 in2.3 mm
12:53 PM 69.8°F21.0°C 67.0°F19.4°C 91% 8.6 mph NE13.8 kmh NE 15.0 mph24.1 kmh 29.95 in1014.2 mb 0.00 in0.0 mm 0.00 in0.0 mm 0.09 in2.3 mm
12:58 PM 69.3°F20.7°C 66.8°F19.3°C 92% 4.8 mph NE7.7 kmh NE 15.0 mph24.1 kmh 29.96 in1014.6 mb 0.00 in0.0 mm 0.00 in0.0 mm 0.09 in2.3 mm
01:03 PM 69.2°F20.7°C 67.1°F19.5°C 93% 4.8 mph NE7.7 kmh NE 15.0 mph24.1 kmh 29.95 in1014.2 mb 0.00 in0.0 mm 0.00 in0.0 mm 0.09 in2.3 mm
01:08 PM 69.0°F20.6°C 66.9°F19.4°C 93% 7.4 mph NE11.9 kmh NE 15.0 mph24.1 kmh 29.95 in1014.2 mb 0.00 in0.0 mm 0.00 in0.0 mm 0.09 in2.3 mm
01:13 PM 69.0°F20.6°C 66.9°F19.4°C 93% 6.6 mph NE10.6 kmh NE 13.0 mph20.9 kmh 29.95 in1014.2 mb 0.00 in0.0 mm 0.00 in0.0 mm 0.09 in2.3 mm
01:18 PM 69.1°F20.6°C 67.0°F19.4°C 93% 5.7 mph NE9.2 kmh NE 13.0 mph20.9 kmh 29.95 in1014.2 mb 0.00 in0.0 mm 0.00 in0.0 mm 0.09 in2.3 mm
01:23 PM 69.2°F20.7°C 66.7°F19.3°C 92% 5.7 mph NE9.2 kmh NE 13.0 mph20.9 kmh 29.95 in1014.2 mb 0.00 in0.0 mm 0.00 in0.0 mm 0.09 in2.3 mm
01:28 PM 69.4°F20.8°C 66.9°F19.4°C 92% 7.8 mph ENE12.6 kmh ENE 13.0 mph20.9 kmh 29.95 in1014.2 mb 0.00 in0.0 mm 0.00 in0.0 mm 0.09 in2.3 mm
01:33 PM 69.5°F20.8°C 66.7°F19.3°C 91% 5.6 mph NE9.0 kmh NE 13.0 mph20.9 kmh 29.95 in1014.2 mb 0.00 in0.0 mm 0.00 in0.0 mm 0.09 in2.3 mm
01:38 PM 69.5°F20.8°C 67.0°F19.4°C 92% 3.9 mph NE6.3 kmh NE 13.0 mph20.9 kmh 29.94 in1013.9 mb 0.00 in0.0 mm 0.00 in0.0 mm 0.09 in2.3 mm
01:43 PM 69.7°F20.9°C 66.9°F19.4°C 91% 4.3 mph NE6.9 kmh NE 13.0 mph20.9 kmh 29.94 in1013.9 mb 0.00 in0.0 mm 0.00 in0.0 mm 0.09 in2.3 mm
01:48 PM 69.8°F21.0°C 67.0°F19.4°C 91% 4.8 mph NE7.7 kmh NE 13.0 mph20.9 kmh 29.94 in1013.9 mb 0.00 in0.0 mm 0.00 in0.0 mm 0.09 in2.3 mm
01:53 PM 69.8°F21.0°C 67.0°F19.4°C 91% 4.2 mph NE6.8 kmh NE 13.0 mph20.9 kmh 29.94 in1013.9 mb 0.00 in0.0 mm 0.00 in0.0 mm 0.09 in2.3 mm
01:58 PM 69.7°F20.9°C 66.9°F19.4°C 91% 6.7 mph NE10.8 kmh NE 16.0 mph25.7 kmh 29.94 in1013.9 mb 0.00 in0.0 mm 0.00 in0.0 mm 0.09 in2.3 mm
02:03 PM 69.7°F20.9°C 66.9°F19.4°C 91% 5.2 mph ENE8.4 kmh ENE 16.0 mph25.7 kmh 29.94 in1013.9 mb 0.00 in0.0 mm 0.00 in0.0 mm 0.09 in2.3 mm
02:08 PM 69.6°F20.9°C 66.8°F19.3°C 91% 7.2 mph NE11.6 kmh NE 16.0 mph25.7 kmh 29.94 in1013.9 mb 0.00 in0.0 mm 0.00 in0.0 mm 0.09 in2.3 mm
02:13 PM 69.1°F20.6°C 66.6°F19.2°C 92% 5.4 mph NE8.7 kmh NE 16.0 mph25.7 kmh 29.94 in1013.9 mb 0.00 in0.0 mm 0.00 in0.0 mm 0.09 in2.3 mm
02:18 PM 68.9°F20.5°C 66.5°F19.2°C 92% 5.4 mph ENE8.7 kmh ENE 13.0 mph20.9 kmh 29.94 in1013.9 mb 0.00 in0.0 mm 0.00 in0.0 mm 0.09 in2.3 mm
02:23 PM 68.8°F20.4°C 66.7°F19.3°C 93% 5.4 mph NE8.7 kmh NE 13.0 mph20.9 kmh 29.94 in1013.9 mb 0.00 in0.0 mm 0.00 in0.0 mm 0.09 in2.3 mm
02:28 PM 68.8°F20.4°C 66.7°F19.3°C 93% 2.5 mph NE4.0 kmh NE 13.0 mph20.9 kmh 29.94 in1013.9 mb 0.00 in0.0 mm 0.00 in0.0 mm 0.09 in2.3 mm
02:33 PM 68.8°F20.4°C 66.7°F19.3°C 93% 5.4 mph NE8.7 kmh NE 11.0 mph17.7 kmh 29.94 in1013.9 mb 0.00 in0.0 mm 0.00 in0.0 mm 0.09 in2.3 mm
02:38 PM 68.8°F20.4°C 66.7°F19.3°C 93% 4.0 mph NE6.4 kmh NE 13.0 mph20.9 kmh 29.93 in1013.5 mb 0.00 in0.0 mm 0.00 in0.0 mm 0.09 in2.3 mm
02:43 PM 68.9°F20.5°C 66.5°F19.2°C 92% 4.5 mph NE7.2 kmh NE 13.0 mph20.9 kmh 29.93 in1013.5 mb 0.00 in0.0 mm 0.00 in0.0 mm 0.09 in2.3 mm
02:48 PM 68.8°F20.4°C 66.4°F19.1°C 92% 6.6 mph NE10.6 kmh NE 13.0 mph20.9 kmh 29.93 in1013.5 mb 0.00 in0.0 mm 0.00 in0.0 mm 0.09 in2.3 mm
02:53 PM 68.8°F20.4°C 66.4°F19.1°C 92% 5.8 mph NE9.3 kmh NE 13.0 mph20.9 kmh 29.93 in1013.5 mb 0.00 in0.0 mm 0.00 in0.0 mm 0.09 in2.3 mm
02:58 PM 68.8°F20.4°C 66.4°F19.1°C 92% 7.3 mph NE11.7 kmh NE 13.0 mph20.9 kmh 29.92 in1013.2 mb 0.00 in0.0 mm 0.00 in0.0 mm 0.09 in2.3 mm
03:03 PM 69.0°F20.6°C 66.2°F19.0°C 91% 5.5 mph NE8.9 kmh NE 15.0 mph24.1 kmh 29.92 in1013.2 mb 0.00 in0.0 mm 0.00 in0.0 mm 0.09 in2.3 mm
03:08 PM 69.3°F20.7°C 66.5°F19.2°C 91% 5.0 mph NE8.0 kmh NE 15.0 mph24.1 kmh 29.92 in1013.2 mb 0.00 in0.0 mm 0.00 in0.0 mm 0.09 in2.3 mm
03:13 PM 69.3°F20.7°C 66.2°F19.0°C 90% 6.9 mph NE11.1 kmh NE 15.0 mph24.1 kmh 29.92 in1013.2 mb 0.00 in0.0 mm 0.00 in0.0 mm 0.09 in2.3 mm
03:18 PM 69.3°F20.7°C 66.2°F19.0°C 90% 5.6 mph NE9.0 kmh NE 14.0 mph22.5 kmh 29.92 in1013.2 mb 0.00 in0.0 mm 0.00 in0.0 mm 0.09 in2.3 mm
03:23 PM 69.4°F20.8°C 66.3°F19.1°C 90% 3.5 mph NE5.6 kmh NE 14.0 mph22.5 kmh 29.92 in1013.2 mb 0.00 in0.0 mm 0.00 in0.0 mm 0.09 in2.3 mm
03:28 PM 69.5°F20.8°C 66.1°F18.9°C 89% 4.7 mph NE7.6 kmh NE 14.0 mph22.5 kmh 29.93 in1013.5 mb 0.00 in0.0 mm 0.00 in0.0 mm 0.09 in2.3 mm
03:33 PM 69.6°F20.9°C 66.2°F19.0°C 89% 4.3 mph NNE6.9 kmh NNE 13.0 mph20.9 kmh 29.92 in1013.2 mb 0.00 in0.0 mm 0.00 in0.0 mm 0.09 in2.3 mm
03:38 PM 69.6°F20.9°C 66.2°F19.0°C 89% 6.5 mph NE10.5 kmh NE 14.0 mph22.5 kmh 29.93 in1013.5 mb 0.00 in0.0 mm 0.00 in0.0 mm 0.09 in2.3 mm
03:43 PM 69.6°F20.9°C 66.2°F19.0°C 89% 4.7 mph NE7.6 kmh NE 14.0 mph22.5 kmh 29.93 in1013.5 mb 0.00 in0.0 mm 0.00 in0.0 mm 0.09 in2.3 mm
03:48 PM 69.5°F20.8°C 66.1°F18.9°C 89% 5.9 mph NE9.5 kmh NE 14.0 mph22.5 kmh 29.92 in1013.2 mb 0.00 in0.0 mm 0.00 in0.0 mm 0.09 in2.3 mm
03:53 PM 69.4°F20.8°C 66.0°F18.9°C 89% 5.4 mph NE8.7 kmh NE 11.0 mph17.7 kmh 29.92 in1013.2 mb 0.00 in0.0 mm 0.00 in0.0 mm 0.09 in2.3 mm
03:58 PM 69.4°F20.8°C 66.3°F19.1°C 90% 3.1 mph NE5.0 kmh NE 11.0 mph17.7 kmh 29.92 in1013.2 mb 0.00 in0.0 mm 0.00 in0.0 mm 0.09 in2.3 mm
04:03 PM 69.4°F20.8°C 66.3°F19.1°C 90% 4.7 mph NE7.6 kmh NE 11.0 mph17.7 kmh 29.92 in1013.2 mb 0.00 in0.0 mm 0.00 in0.0 mm 0.09 in2.3 mm
04:08 PM 69.2°F20.7°C 66.1°F18.9°C 90% 6.3 mph NE10.1 kmh NE 11.0 mph17.7 kmh 29.92 in1013.2 mb 0.00 in0.0 mm 0.00 in0.0 mm 0.09 in2.3 mm
04:13 PM 69.2°F20.7°C 66.1°F18.9°C 90% 5.7 mph NE9.2 kmh NE 11.0 mph17.7 kmh 29.91 in1012.9 mb 0.00 in0.0 mm 0.00 in0.0 mm 0.09 in2.3 mm
04:18 PM 69.1°F20.6°C 66.0°F18.9°C 90% 5.6 mph NE9.0 kmh NE 11.0 mph17.7 kmh 29.91 in1012.9 mb 0.00 in0.0 mm 0.00 in0.0 mm 0.09 in2.3 mm
04:23 PM 69.2°F20.7°C 66.1°F18.9°C 90% 4.3 mph NE6.9 kmh NE 11.0 mph17.7 kmh 29.91 in1012.9 mb 0.00 in0.0 mm 0.00 in0.0 mm 0.09 in2.3 mm
04:28 PM 69.3°F20.7°C 66.2°F19.0°C 90% 2.8 mph NE4.5 kmh NE 9.0 mph14.5 kmh 29.91 in1012.9 mb 0.00 in0.0 mm 0.00 in0.0 mm 0.09 in2.3 mm
04:33 PM 69.2°F20.7°C 66.1°F18.9°C 90% 6.3 mph NE10.1 kmh NE 9.0 mph14.5 kmh 29.91 in1012.9 mb 0.00 in0.0 mm 0.00 in0.0 mm 0.09 in2.3 mm
04:38 PM 69.0°F20.6°C 66.2°F19.0°C 91% 3.3 mph NE5.3 kmh NE 9.0 mph14.5 kmh 29.91 in1012.9 mb 0.00 in0.0 mm 0.00 in0.0 mm 0.09 in2.3 mm
04:43 PM 69.0°F20.6°C 66.6°F19.2°C 92% 3.0 mph NE4.8 kmh NE 9.0 mph14.5 kmh 29.91 in1012.9 mb 0.00 in0.0 mm 0.00 in0.0 mm 0.09 in2.3 mm
04:48 PM 69.0°F20.6°C 66.3°F19.1°C 91% 3.0 mph NE4.8 kmh NE 9.0 mph14.5 kmh 29.91 in1012.9 mb 0.00 in0.0 mm 0.00 in0.0 mm 0.09 in2.3 mm
04:53 PM 69.1°F20.6°C 66.3°F19.1°C 91% 1.9 mph NE3.1 kmh NE 8.0 mph12.9 kmh 29.91 in1012.9 mb 0.00 in0.0 mm 0.00 in0.0 mm 0.09 in2.3 mm
04:57 PM 69.2°F20.7°C 66.4°F19.1°C 91% 4.0 mph NE6.4 kmh NE 8.0 mph12.9 kmh 29.91 in1012.9 mb 0.00 in0.0 mm 0.00 in0.0 mm 0.09 in2.3 mm
05:02 PM 69.3°F20.7°C 66.5°F19.2°C 91% 3.6 mph NE5.8 kmh NE 12.0 mph19.3 kmh 29.91 in1012.9 mb 0.00 in0.0 mm 0.00 in0.0 mm 0.09 in2.3 mm
05:07 PM 69.5°F20.8°C 66.4°F19.1°C 90% 4.0 mph NE6.4 kmh NE 12.0 mph19.3 kmh 29.91 in1012.9 mb 0.00 in0.0 mm 0.00 in0.0 mm 0.09 in2.3 mm
05:12 PM 69.7°F20.9°C 66.6°F19.2°C 90% 3.4 mph NE5.5 kmh NE 12.0 mph19.3 kmh 29.91 in1012.9 mb 0.00 in0.0 mm 0.00 in0.0 mm 0.09 in2.3 mm
05:17 PM 69.9°F21.1°C 66.8°F19.3°C 90% 3.6 mph NE5.8 kmh NE 12.0 mph19.3 kmh 29.91 in1012.9 mb 0.00 in0.0 mm 0.00 in0.0 mm 0.09 in2.3 mm
05:22 PM 70.1°F21.2°C 66.7°F19.3°C 89% 3.9 mph NE6.3 kmh NE 11.0 mph17.7 kmh 29.91 in1012.9 mb 0.00 in0.0 mm 0.00 in0.0 mm 0.09 in2.3 mm
05:27 PM 70.2°F21.2°C 66.8°F19.3°C 89% 6.5 mph NE10.5 kmh NE 10.0 mph16.1 kmh 29.91 in1012.9 mb 0.00 in0.0 mm 0.00 in0.0 mm 0.09 in2.3 mm
05:32 PM 70.1°F21.2°C 67.0°F19.4°C 90% 4.0 mph NE6.4 kmh NE 10.0 mph16.1 kmh 29.91 in1012.9 mb 0.00 in0.0 mm 0.00 in0.0 mm 0.09 in2.3 mm
05:37 PM 70.0°F21.1°C 66.9°F19.4°C 90% 2.9 mph NE4.7 kmh NE 10.0 mph16.1 kmh 29.92 in1013.2 mb 0.00 in0.0 mm 0.00 in0.0 mm 0.09 in2.3 mm
05:42 PM 70.1°F21.2°C 66.7°F19.3°C 89% 3.4 mph NE5.5 kmh NE 10.0 mph16.1 kmh 29.92 in1013.2 mb 0.00 in0.0 mm 0.00 in0.0 mm 0.09 in2.3 mm
05:47 PM 69.8°F21.0°C 66.7°F19.3°C 90% 4.1 mph NE6.6 kmh NE 8.0 mph12.9 kmh 29.91 in1012.9 mb 0.00 in0.0 mm 0.00 in0.0 mm 0.09 in2.3 mm
05:52 PM 69.7°F20.9°C 66.6°F19.2°C 90% 3.5 mph NE5.6 kmh NE 8.0 mph12.9 kmh 29.91 in1012.9 mb 0.00 in0.0 mm 0.00 in0.0 mm 0.09 in2.3 mm
05:57 PM 69.6°F20.9°C 66.5°F19.2°C 90% 5.4 mph NE8.7 kmh NE 9.0 mph14.5 kmh 29.91 in1012.9 mb 0.00 in0.0 mm 0.00 in0.0 mm 0.09 in2.3 mm
06:02 PM 69.7°F20.9°C 66.6°F19.2°C 90% 2.6 mph NE4.2 kmh NE 9.0 mph14.5 kmh 29.91 in1012.9 mb 0.00 in0.0 mm 0.00 in0.0 mm 0.09 in2.3 mm
06:07 PM 69.9°F21.1°C 66.8°F19.3°C 90% 4.4 mph NE7.1 kmh NE 9.0 mph14.5 kmh 29.91 in1012.9 mb 0.00 in0.0 mm 0.00 in0.0 mm 0.09 in2.3 mm
06:12 PM 70.1°F21.2°C 66.7°F19.3°C 89% 3.5 mph NE5.6 kmh NE 10.0 mph16.1 kmh 29.90 in1012.5 mb 0.00 in0.0 mm 0.00 in0.0 mm 0.09 in2.3 mm
06:17 PM 70.4°F21.3°C 67.0°F19.4°C 89% 2.1 mph ENE3.4 kmh ENE 10.0 mph16.1 kmh 29.90 in1012.5 mb 0.00 in0.0 mm 0.00 in0.0 mm 0.09 in2.3 mm
06:22 PM 70.4°F21.3°C 66.7°F19.3°C 88% 4.6 mph ENE7.4 kmh ENE 11.0 mph17.7 kmh 29.90 in1012.5 mb 0.00 in0.0 mm 0.00 in0.0 mm 0.09 in2.3 mm
06:27 PM 70.3°F21.3°C 66.6°F19.2°C 88% 6.4 mph ENE10.3 kmh ENE 12.0 mph19.3 kmh 29.90 in1012.5 mb 0.00 in0.0 mm 0.00 in0.0 mm 0.09 in2.3 mm
06:32 PM 70.3°F21.3°C 66.9°F19.4°C 89% 2.0 mph E3.2 kmh E 12.0 mph19.3 kmh 29.90 in1012.5 mb 0.00 in0.0 mm 0.00 in0.0 mm 0.09 in2.3 mm
06:37 PM 70.3°F21.3°C 66.6°F19.2°C 88% 5.9 mph E9.5 kmh E 12.0 mph19.3 kmh 29.89 in1012.2 mb 0.00 in0.0 mm 0.00 in0.0 mm 0.09 in2.3 mm
06:42 PM 70.2°F21.2°C 66.8°F19.3°C 89% 3.7 mph ENE6.0 kmh ENE 12.0 mph19.3 kmh 29.89 in1012.2 mb 0.00 in0.0 mm 0.00 in0.0 mm 0.09 in2.3 mm
06:47 PM 70.2°F21.2°C 66.5°F19.2°C 88% 4.2 mph ENE6.8 kmh ENE 12.0 mph19.3 kmh 29.88 in1011.9 mb 0.00 in0.0 mm 0.00 in0.0 mm 0.09 in2.3 mm
06:52 PM 70.3°F21.3°C 66.6°F19.2°C 88% 3.9 mph NE6.3 kmh NE 12.0 mph19.3 kmh 29.89 in1012.2 mb 0.00 in0.0 mm 0.00 in0.0 mm 0.09 in2.3 mm
06:57 PM 70.3°F21.3°C 66.6°F19.2°C 88% 3.8 mph ENE6.1 kmh ENE 10.0 mph16.1 kmh 29.89 in1012.2 mb 0.00 in0.0 mm 0.00 in0.0 mm 0.09 in2.3 mm
07:02 PM 70.3°F21.3°C 66.6°F19.2°C 88% 3.5 mph NE5.6 kmh NE 10.0 mph16.1 kmh 29.89 in1012.2 mb 0.00 in0.0 mm 0.00 in0.0 mm 0.09 in2.3 mm
07:07 PM 70.3°F21.3°C 66.6°F19.2°C 88% 4.3 mph ENE6.9 kmh ENE 9.0 mph14.5 kmh 29.89 in1012.2 mb 0.00 in0.0 mm 0.00 in0.0 mm 0.09 in2.3 mm
07:12 PM 70.2°F21.2°C 66.5°F19.2°C 88% 3.1 mph E5.0 kmh E 9.0 mph14.5 kmh 29.89 in1012.2 mb 0.00 in0.0 mm 0.00 in0.0 mm 0.09 in2.3 mm
07:17 PM 70.2°F21.2°C 66.5°F19.2°C 88% 3.4 mph ENE5.5 kmh ENE 10.0 mph16.1 kmh 29.89 in1012.2 mb 0.00 in0.0 mm 0.00 in0.0 mm 0.09 in2.3 mm
07:22 PM 70.1°F21.2°C 66.4°F19.1°C 88% 2.8 mph NE4.5 kmh NE 10.0 mph16.1 kmh 29.89 in1012.2 mb 0.00 in0.0 mm 0.00 in0.0 mm 0.09 in2.3 mm
07:27 PM 70.0°F21.1°C 66.3°F19.1°C 88% 2.7 mph ENE4.3 kmh ENE 10.0 mph16.1 kmh 29.89 in1012.2 mb 0.00 in0.0 mm 0.00 in0.0 mm 0.09 in2.3 mm
07:32 PM 69.9°F21.1°C 66.2°F19.0°C 88% 2.9 mph E4.7 kmh E 10.0 mph16.1 kmh 29.90 in1012.5 mb 0.00 in0.0 mm 0.00 in0.0 mm 0.09 in2.3 mm
07:38 PM 69.9°F21.1°C 66.5°F19.2°C 89% 4.5 mph ENE7.2 kmh ENE 10.0 mph16.1 kmh 29.89 in1012.2 mb 0.00 in0.0 mm 0.00 in0.0 mm 0.09 in2.3 mm
07:42 PM 69.6°F20.9°C 65.9°F18.8°C 88% 4.6 mph NE7.4 kmh NE 10.0 mph16.1 kmh 29.89 in1012.2 mb 0.00 in0.0 mm 0.00 in0.0 mm 0.09 in2.3 mm
07:47 PM 69.5°F20.8°C 66.1°F18.9°C 89% 3.4 mph ENE5.5 kmh ENE 10.0 mph16.1 kmh 29.88 in1011.9 mb 0.00 in0.0 mm 0.00 in0.0 mm 0.09 in2.3 mm
07:52 PM 69.4°F20.8°C 66.0°F18.9°C 89% 3.7 mph ENE6.0 kmh ENE 10.0 mph16.1 kmh 29.88 in1011.9 mb 0.00 in0.0 mm 0.00 in0.0 mm 0.09 in2.3 mm
07:58 PM 69.3°F20.7°C 65.9°F18.8°C 89% 2.8 mph NE4.5 kmh NE 8.0 mph12.9 kmh 29.88 in1011.9 mb 0.00 in0.0 mm 0.00 in0.0 mm 0.09 in2.3 mm
08:03 PM 69.2°F20.7°C 65.8°F18.8°C 89% 5.4 mph NE8.7 kmh NE 9.0 mph14.5 kmh 29.89 in1012.2 mb 0.00 in0.0 mm 0.00 in0.0 mm 0.09 in2.3 mm
08:08 PM 69.2°F20.7°C 65.8°F18.8°C 89% 4.6 mph E7.4 kmh E 9.0 mph14.5 kmh 29.89 in1012.2 mb 0.00 in0.0 mm 0.00 in0.0 mm 0.09 in2.3 mm
08:13 PM 69.1°F20.6°C 66.0°F18.9°C 90% 3.9 mph ESE6.3 kmh ESE 9.0 mph14.5 kmh 29.89 in1012.2 mb 0.00 in0.0 mm 0.00 in0.0 mm 0.09 in2.3 mm
08:18 PM 69.0°F20.6°C 65.6°F18.7°C 89% 2.2 mph E3.5 kmh E 9.0 mph14.5 kmh 29.89 in1012.2 mb 0.00 in0.0 mm 0.00 in0.0 mm 0.09 in2.3 mm
08:23 PM 69.0°F20.6°C 65.6°F18.7°C 89% 3.1 mph E5.0 kmh E 9.0 mph14.5 kmh 29.90 in1012.5 mb 0.00 in0.0 mm 0.00 in0.0 mm 0.09 in2.3 mm
08:28 PM 68.9°F20.5°C 65.5°F18.6°C 89% 4.5 mph NE7.2 kmh NE 13.0 mph20.9 kmh 29.91 in1012.9 mb 0.00 in0.0 mm 0.00 in0.0 mm 0.09 in2.3 mm
08:33 PM 68.8°F20.4°C 65.4°F18.6°C 89% 2.9 mph NE4.7 kmh NE 13.0 mph20.9 kmh 29.91 in1012.9 mb 0.00 in0.0 mm 0.00 in0.0 mm 0.09 in2.3 mm
08:38 PM 68.8°F20.4°C 65.4°F18.6°C 89% 2.4 mph NE3.9 kmh NE 13.0 mph20.9 kmh 29.92 in1013.2 mb 0.00 in0.0 mm 0.00 in0.0 mm 0.09 in2.3 mm
08:43 PM 68.8°F20.4°C 65.4°F18.6°C 89% 2.1 mph E3.4 kmh E 13.0 mph20.9 kmh 29.91 in1012.9 mb 0.00 in0.0 mm 0.00 in0.0 mm 0.09 in2.3 mm
08:48 PM 68.7°F20.4°C 65.3°F18.5°C 89% 2.2 mph ENE3.5 kmh ENE 7.0 mph11.3 kmh 29.92 in1013.2 mb 0.00 in0.0 mm 0.00 in0.0 mm 0.09 in2.3 mm
08:53 PM 68.7°F20.4°C 65.6°F18.7°C 90% 1.3 mph E2.1 kmh E 7.0 mph11.3 kmh 29.92 in1013.2 mb 0.00 in0.0 mm 0.00 in0.0 mm 0.09 in2.3 mm
08:58 PM 68.5°F20.3°C 65.4°F18.6°C 90% 1.7 mph NE2.7 kmh NE 7.0 mph11.3 kmh 29.92 in1013.2 mb 0.00 in0.0 mm 0.00 in0.0 mm 0.09 in2.3 mm
09:03 PM 68.4°F20.2°C 65.3°F18.5°C 90% 2.3 mph E3.7 kmh E 7.0 mph11.3 kmh 29.92 in1013.2 mb 0.00 in0.0 mm 0.00 in0.0 mm 0.09 in2.3 mm
09:08 PM 68.4°F20.2°C 65.3°F18.5°C 90% 2.6 mph E4.2 kmh E 5.0 mph8.0 kmh 29.92 in1013.2 mb 0.00 in0.0 mm 0.00 in0.0 mm 0.09 in2.3 mm
09:13 PM 68.3°F20.2°C 65.6°F18.7°C 91% 1.7 mph ENE2.7 kmh ENE 5.0 mph8.0 kmh 29.92 in1013.2 mb 0.00 in0.0 mm 0.00 in0.0 mm 0.09 in2.3 mm
09:18 PM 68.3°F20.2°C 65.6°F18.7°C 91% 2.2 mph ESE3.5 kmh ESE 5.0 mph8.0 kmh 29.92 in1013.2 mb 0.00 in0.0 mm 0.00 in0.0 mm 0.09 in2.3 mm
09:23 PM 68.2°F20.1°C 65.5°F18.6°C 91% 1.6 mph SE2.6 kmh SE 4.0 mph6.4 kmh 29.93 in1013.5 mb 0.00 in0.0 mm 0.00 in0.0 mm 0.09 in2.3 mm
09:28 PM 68.1°F20.1°C 65.3°F18.5°C 91% 2.9 mph E4.7 kmh E 5.0 mph8.0 kmh 29.92 in1013.2 mb 0.00 in0.0 mm 0.00 in0.0 mm 0.09 in2.3 mm
09:33 PM 68.1°F20.1°C 65.3°F18.5°C 91% 2.6 mph E4.2 kmh E 5.0 mph8.0 kmh 29.93 in1013.5 mb 0.00 in0.0 mm 0.00 in0.0 mm 0.09 in2.3 mm
09:38 PM 68.0°F20.0°C 65.6°F18.7°C 92% 1.5 mph SE2.4 kmh SE 5.0 mph8.0 kmh 29.93 in1013.5 mb 0.00 in0.0 mm 0.00 in0.0 mm 0.09 in2.3 mm
09:43 PM 67.9°F19.9°C 65.5°F18.6°C 92% 1.9 mph E3.1 kmh E 5.0 mph8.0 kmh 29.93 in1013.5 mb 0.00 in0.0 mm 0.00 in0.0 mm 0.09 in2.3 mm
09:48 PM 67.8°F19.9°C 65.4°F18.6°C 92% Calm Calm 5.0 mph8.0 kmh 29.93 in1013.5 mb 0.00 in0.0 mm 0.00 in0.0 mm 0.09 in2.3 mm
09:53 PM 67.8°F19.9°C 65.4°F18.6°C 92% 2.2 mph E3.5 kmh E 5.0 mph8.0 kmh 29.93 in1013.5 mb 0.00 in0.0 mm 0.00 in0.0 mm 0.09 in2.3 mm
09:58 PM 67.7°F19.8°C 65.6°F18.7°C 93% 1.9 mph E3.1 kmh E 4.0 mph6.4 kmh 29.93 in1013.5 mb 0.00 in0.0 mm 0.00 in0.0 mm 0.09 in2.3 mm
10:03 PM 67.6°F19.8°C 65.5°F18.6°C 93% 1.0 mph E1.6 kmh E 4.0 mph6.4 kmh 29.93 in1013.5 mb 0.00 in0.0 mm 0.00 in0.0 mm 0.09 in2.3 mm
10:08 PM 67.6°F19.8°C 65.5°F18.6°C 93% 1.3 mph E2.1 kmh E 4.0 mph6.4 kmh 29.93 in1013.5 mb 0.00 in0.0 mm 0.00 in0.0 mm 0.09 in2.3 mm
10:13 PM 67.6°F19.8°C 65.5°F18.6°C 93% 1.0 mph ESE1.6 kmh ESE 4.0 mph6.4 kmh 29.94 in1013.9 mb 0.00 in0.0 mm 0.00 in0.0 mm 0.09 in2.3 mm
10:18 PM 67.6°F19.8°C 65.5°F18.6°C 93% 1.0 mph E1.6 kmh E 4.0 mph6.4 kmh 29.94 in1013.9 mb 0.00 in0.0 mm 0.00 in0.0 mm 0.09 in2.3 mm
10:23 PM 67.6°F19.8°C 65.5°F18.6°C 93% 1.0 mph SE1.6 kmh SE 4.0 mph6.4 kmh 29.94 in1013.9 mb 0.00 in0.0 mm 0.00 in0.0 mm 0.09 in2.3 mm
10:28 PM 67.6°F19.8°C 65.5°F18.6°C 93% 1.0 mph SE1.6 kmh SE 2.0 mph3.2 kmh 29.94 in1013.9 mb 0.00 in0.0 mm 0.00 in0.0 mm 0.09 in2.3 mm
10:33 PM 67.6°F19.8°C 65.5°F18.6°C 93% 1.3 mph E2.1 kmh E 2.0 mph3.2 kmh 29.94 in1013.9 mb 0.00 in0.0 mm 0.00 in0.0 mm 0.09 in2.3 mm
10:38 PM 67.6°F19.8°C 65.2°F18.4°C 92% 1.4 mph SE2.3 kmh SE 4.0 mph6.4 kmh 29.94 in1013.9 mb 0.00 in0.0 mm 0.00 in0.0 mm 0.09 in2.3 mm
10:43 PM 67.5°F19.7°C 65.4°F18.6°C 93% 2.2 mph SE3.5 kmh SE 4.0 mph6.4 kmh 29.94 in1013.9 mb 0.00 in0.0 mm 0.00 in0.0 mm 0.09 in2.3 mm
10:48 PM 67.5°F19.7°C 65.4°F18.6°C 93% 1.0 mph SE1.6 kmh SE 4.0 mph6.4 kmh 29.94 in1013.9 mb 0.00 in0.0 mm 0.00 in0.0 mm 0.09 in2.3 mm
10:53 PM 67.4°F19.7°C 65.3°F18.5°C 93% 2.0 mph ESE3.2 kmh ESE 5.0 mph8.0 kmh 29.94 in1013.9 mb 0.00 in0.0 mm 0.00 in0.0 mm 0.09 in2.3 mm
10:57 PM 67.3°F19.6°C 65.2°F18.4°C 93% 1.7 mph SE2.7 kmh SE 5.0 mph8.0 kmh 29.94 in1013.9 mb 0.00 in0.0 mm 0.00 in0.0 mm 0.09 in2.3 mm
11:02 PM 67.3°F19.6°C 65.2°F18.4°C 93% 1.4 mph E2.3 kmh E 5.0 mph8.0 kmh 29.94 in1013.9 mb 0.00 in0.0 mm 0.00 in0.0 mm 0.09 in2.3 mm
11:07 PM 67.1°F19.5°C 65.0°F18.3°C 93% 3.5 mph ESE5.6 kmh ESE 6.0 mph9.7 kmh 29.94 in1013.9 mb 0.00 in0.0 mm 0.00 in0.0 mm 0.09 in2.3 mm
11:12 PM 66.9°F19.4°C 65.1°F18.4°C 94% 1.0 mph SE1.6 kmh SE 6.0 mph9.7 kmh 29.94 in1013.9 mb 0.00 in0.0 mm 0.00 in0.0 mm 0.09 in2.3 mm
11:17 PM 66.9°F19.4°C 65.1°F18.4°C 94% 1.3 mph SE2.1 kmh SE 6.0 mph9.7 kmh 29.94 in1013.9 mb 0.00 in0.0 mm 0.00 in0.0 mm 0.09 in2.3 mm
11:22 PM 66.8°F19.3°C 65.0°F18.3°C 94% 1.4 mph SE2.3 kmh SE 6.0 mph9.7 kmh 29.94 in1013.9 mb 0.00 in0.0 mm 0.00 in0.0 mm 0.09 in2.3 mm
11:27 PM 66.8°F19.3°C 65.0°F18.3°C 94% 1.6 mph E2.6 kmh E 5.0 mph8.0 kmh 29.93 in1013.5 mb 0.00 in0.0 mm 0.00 in0.0 mm 0.09 in2.3 mm
11:32 PM 66.8°F19.3°C 65.0°F18.3°C 94% 1.6 mph ESE2.6 kmh ESE 4.0 mph6.4 kmh 29.94 in1013.9 mb 0.00 in0.0 mm 0.00 in0.0 mm 0.09 in2.3 mm
11:37 PM 66.8°F19.3°C 65.0°F18.3°C 94% 2.0 mph E3.2 kmh E 4.0 mph6.4 kmh 29.93 in1013.5 mb 0.00 in0.0 mm 0.00 in0.0 mm 0.09 in2.3 mm
11:42 PM 66.8°F19.3°C 65.0°F18.3°C 94% 1.5 mph ENE2.4 kmh ENE 4.0 mph6.4 kmh 29.93 in1013.5 mb 0.00 in0.0 mm 0.00 in0.0 mm 0.09 in2.3 mm
11:47 PM 66.8°F19.3°C 65.0°F18.3°C 94% 2.6 mph E4.2 kmh E 4.0 mph6.4 kmh 29.93 in1013.5 mb 0.00 in0.0 mm 0.00 in0.0 mm 0.09 in2.3 mm
11:52 PM 66.7°F19.3°C 64.9°F18.3°C 94% 1.6 mph ESE2.6 kmh ESE 5.0 mph8.0 kmh 29.93 in1013.5 mb 0.00 in0.0 mm 0.00 in0.0 mm 0.09 in2.3 mm
11:57 PM 66.8°F19.3°C 65.0°F18.3°C 94% 1.8 mph ESE2.9 kmh ESE 5.0 mph8.0 kmh 29.93 in1013.5 mb 0.00 in0.0 mm 0.00 in0.0 mm 0.09 in2.3 mm